createdAt,value
2023-02-01T00:00:55.423Z,4.20
2023-02-01T00:03:22.045Z,4.30
2023-02-01T00:06:06.554Z,4.30
2023-02-01T00:08:33.168Z,4.30
2023-02-01T00:11:04.944Z,4.30
2023-02-01T00:13:36.575Z,4.30
2023-02-01T00:16:09.097Z,4.40
2023-02-01T00:18:36.622Z,4.40
2023-02-01T00:21:03.568Z,4.40
2023-02-01T00:23:34.208Z,4.40
2023-02-01T00:26:10.769Z,4.40
2023-02-01T00:28:37.411Z,4.40
2023-02-01T00:31:05.468Z,4.50
2023-02-01T00:33:33.287Z,4.40
2023-02-01T00:36:01.629Z,4.40
2023-02-01T00:38:29.535Z,4.40
2023-02-01T00:41:02.729Z,4.40
2023-02-01T00:43:29.437Z,4.40
2023-02-01T00:45:56.073Z,4.40
2023-02-01T00:48:22.820Z,4.40
2023-02-01T00:50:49.465Z,4.40
2023-02-01T00:53:16.020Z,4.40
2023-02-01T00:55:49.161Z,4.40
2023-02-01T00:58:16.010Z,4.40
2023-02-01T01:00:42.686Z,4.40
2023-02-01T01:03:18.588Z,4.40
2023-02-01T01:05:49.295Z,4.50
2023-02-01T01:08:17.044Z,4.50
2023-02-01T01:10:44.472Z,4.50
2023-02-01T01:13:11.804Z,4.60
2023-02-01T01:15:39.816Z,4.50
2023-02-01T01:18:07.545Z,4.60
2023-02-01T01:20:39.052Z,4.60
2023-02-01T01:23:06.560Z,4.60
2023-02-01T01:25:33.178Z,4.60
2023-02-01T01:27:59.837Z,4.50
2023-02-01T01:30:26.458Z,4.60
2023-02-01T01:32:53.659Z,4.60
2023-02-01T01:35:20.485Z,4.60
2023-02-01T01:37:47.108Z,4.60
2023-02-01T01:40:14.571Z,4.60
2023-02-01T01:42:43.609Z,4.60
2023-02-01T01:45:33.126Z,4.60
2023-02-01T01:48:09.862Z,4.60
2023-02-01T01:50:49.379Z,4.70
2023-02-01T01:53:23.611Z,4.70
2023-02-01T01:55:52.250Z,4.70
2023-02-01T01:58:21.971Z,4.60
2023-02-01T02:00:48.739Z,4.70
2023-02-01T02:03:20.030Z,4.70
2023-02-01T02:05:49.260Z,4.70
2023-02-01T02:08:16.513Z,4.70
2023-02-01T02:11:02.479Z,4.70
2023-02-01T02:13:39.285Z,4.70
2023-02-01T02:16:26.847Z,4.70
2023-02-01T02:19:20.849Z,4.70
2023-02-01T02:22:11.693Z,4.70
2023-02-01T02:24:53.390Z,4.70
2023-02-01T02:27:50.952Z,4.70
2023-02-01T02:30:28.676Z,4.60
2023-02-01T02:33:16.590Z,4.60
2023-02-01T02:36:08.171Z,4.50
2023-02-01T02:39:03.703Z,4.50
2023-02-01T02:41:53.608Z,4.50
2023-02-01T02:44:45.843Z,4.50
2023-02-01T02:47:24.778Z,4.50
2023-02-01T02:50:31.931Z,4.50
2023-02-01T02:53:26.409Z,4.50
2023-02-01T02:55:53.608Z,4.60
2023-02-01T02:58:41.002Z,4.60
2023-02-01T03:01:26.320Z,4.60
2023-02-01T03:04:13.320Z,4.60
2023-02-01T03:06:40.048Z,4.60
2023-02-01T03:09:14.566Z,4.50
2023-02-01T03:12:02.912Z,4.50
2023-02-01T03:14:31.313Z,4.50
2023-02-01T03:17:08.506Z,4.50
2023-02-01T03:19:44.491Z,4.50
2023-02-01T03:22:15.586Z,4.40
2023-02-01T03:24:50.620Z,4.40
2023-02-01T03:27:36.811Z,4.40
2023-02-01T03:30:23.743Z,4.50
2023-02-01T03:33:00.766Z,4.50
2023-02-01T03:35:52.071Z,4.50
2023-02-01T03:38:56.153Z,4.40
2023-02-01T03:41:33.201Z,4.40
2023-02-01T03:44:21.566Z,4.50
2023-02-01T03:46:56.652Z,4.40
2023-02-01T03:49:37.462Z,4.40
2023-02-01T03:52:06.221Z,4.40
2023-02-01T03:54:33.930Z,4.40
2023-02-01T03:57:08.198Z,4.50
2023-02-01T03:59:34.896Z,4.40
2023-02-01T04:02:01.603Z,4.50
2023-02-01T04:04:28.299Z,4.40
2023-02-01T04:06:54.969Z,4.40
2023-02-01T04:09:21.616Z,4.50
2023-02-01T04:11:48.207Z,4.40
2023-02-01T04:14:14.930Z,4.40
2023-02-01T04:16:41.623Z,4.50
2023-02-01T04:19:08.339Z,4.50
2023-02-01T04:21:34.976Z,4.50
2023-02-01T04:24:01.667Z,4.50
2023-02-01T04:26:28.359Z,4.50
2023-02-01T04:28:55.096Z,4.50
2023-02-01T04:31:26.305Z,4.40
2023-02-01T04:33:53.874Z,4.40
2023-02-01T04:36:24.098Z,4.40
2023-02-01T04:38:51.534Z,4.40
2023-02-01T04:41:19.733Z,4.30
2023-02-01T04:43:50.578Z,4.30
2023-02-01T04:46:17.363Z,4.30
2023-02-01T04:48:44.061Z,4.40
2023-02-01T04:51:11.403Z,4.40
2023-02-01T04:53:38.019Z,4.40
2023-02-01T04:56:05.428Z,4.40
2023-02-01T04:58:32.010Z,4.40
2023-02-01T05:00:58.716Z,4.50
2023-02-01T05:03:25.379Z,4.50
2023-02-01T05:05:54.398Z,4.50
2023-02-01T05:08:23.319Z,4.60
2023-02-01T05:10:50.083Z,4.50
2023-02-01T05:13:35.321Z,4.60
2023-02-01T05:16:02.161Z,4.60
2023-02-01T05:18:28.902Z,4.50
2023-02-01T05:20:55.542Z,4.60
2023-02-01T05:23:22.206Z,4.60
2023-02-01T05:25:48.852Z,4.60
2023-02-01T05:28:15.528Z,4.60
2023-02-01T05:30:42.504Z,4.60
2023-02-01T05:33:09.278Z,4.60
2023-02-01T05:35:35.897Z,4.60
2023-02-01T05:38:02.496Z,4.60
2023-02-01T05:40:29.165Z,4.70
2023-02-01T05:42:55.790Z,4.70
2023-02-01T05:45:22.419Z,4.70
2023-02-01T05:47:49.076Z,4.60
2023-02-01T05:50:17.467Z,4.60
2023-02-01T05:52:44.093Z,4.50
2023-02-01T05:55:10.848Z,4.50
2023-02-01T05:57:37.417Z,4.50
2023-02-01T06:00:04.919Z,4.40
2023-02-01T06:02:31.519Z,4.30
2023-02-01T06:04:58.147Z,4.30
2023-02-01T06:07:24.742Z,4.30
2023-02-01T06:09:51.350Z,4.30
2023-02-01T06:12:18.026Z,4.20
2023-02-01T06:14:44.763Z,4.20
2023-02-01T06:17:11.409Z,4.30
2023-02-01T06:19:38.028Z,4.30
2023-02-01T06:22:07.168Z,4.30
2023-02-01T06:24:33.876Z,4.30
2023-02-01T06:27:00.660Z,4.30
2023-02-01T06:29:27.576Z,4.40
2023-02-01T06:31:54.392Z,4.50
2023-02-01T06:34:23.268Z,4.40
2023-02-01T06:36:49.966Z,4.40
2023-02-01T06:39:17.066Z,4.30
2023-02-01T06:41:50.344Z,4.30
2023-02-01T06:44:17.850Z,4.20
2023-02-01T06:46:44.554Z,4.20
2023-02-01T06:49:11.519Z,4.20
2023-02-01T06:51:38.220Z,4.20
2023-02-01T06:54:05.209Z,4.20
2023-02-01T06:56:32.416Z,4.20
2023-02-01T06:58:59.058Z,4.10
2023-02-01T07:01:25.666Z,4.10
2023-02-01T07:03:52.530Z,4.10
2023-02-01T07:06:20.143Z,4.00
2023-02-01T07:08:46.779Z,3.90
2023-02-01T07:11:15.138Z,4.00
2023-02-01T07:13:42.105Z,3.90
2023-02-01T07:16:13.394Z,4.00
2023-02-01T07:18:40.192Z,4.00
2023-02-01T07:21:07.445Z,4.00
2023-02-01T07:23:34.201Z,4.10
2023-02-01T07:26:04.313Z,4.10
2023-02-01T07:28:34.183Z,4.10
2023-02-01T07:31:11.032Z,4.10
2023-02-01T07:33:38.036Z,4.10
2023-02-01T07:36:07.337Z,4.10
2023-02-01T07:38:33.992Z,4.20
2023-02-01T07:41:02.097Z,4.20
2023-02-01T07:43:29.635Z,4.20
2023-02-01T07:45:56.869Z,4.10
2023-02-01T07:48:24.498Z,4.10
2023-02-01T07:51:10.232Z,4.20
2023-02-01T07:53:37.092Z,4.10
2023-02-01T07:56:05.014Z,4.20
2023-02-01T07:58:31.700Z,4.20
2023-02-01T08:01:17.501Z,4.20
2023-02-01T08:03:44.102Z,4.30
2023-02-01T08:06:10.938Z,4.30
2023-02-01T08:08:37.553Z,4.30
2023-02-01T08:11:06.371Z,4.30
2023-02-01T08:13:35.971Z,4.50
2023-02-01T08:16:03.718Z,4.50
2023-02-01T08:18:30.814Z,4.60
2023-02-01T08:20:57.758Z,4.70
2023-02-01T08:23:24.400Z,4.90
2023-02-01T08:25:51.064Z,5.10
2023-02-01T08:28:17.964Z,5.20
2023-02-01T08:30:44.625Z,5.30
2023-02-01T08:33:11.948Z,5.40
2023-02-01T08:35:43.694Z,5.40
2023-02-01T08:38:10.755Z,5.50
2023-02-01T08:40:37.496Z,5.50
2023-02-01T08:43:04.230Z,5.70
2023-02-01T08:45:31.269Z,5.80
2023-02-01T08:47:58.218Z,5.80
2023-02-01T08:50:26.313Z,5.90
2023-02-01T08:52:53.747Z,5.90
2023-02-01T08:55:20.897Z,5.90
2023-02-01T08:57:47.531Z,5.90
2023-02-01T09:00:19.475Z,6.10
2023-02-01T09:02:46.557Z,6.20
2023-02-01T09:05:14.905Z,6.20
2023-02-01T09:07:41.486Z,6.30
2023-02-01T09:10:08.584Z,6.40
2023-02-01T09:12:35.933Z,6.50
2023-02-01T09:15:02.956Z,6.40
2023-02-01T09:17:30.799Z,6.50
2023-02-01T09:19:57.765Z,6.40
2023-02-01T09:22:24.539Z,6.30
2023-02-01T09:24:51.513Z,6.30
2023-02-01T09:27:19.181Z,6.10
2023-02-01T09:29:45.917Z,6.00
2023-02-01T09:32:12.615Z,6.00
2023-02-01T09:34:40.482Z,6.00
2023-02-01T09:37:07.448Z,6.00
2023-02-01T09:39:34.093Z,6.10
2023-02-01T09:42:34.259Z,6.10
2023-02-01T09:45:36.429Z,6.10
2023-02-01T09:48:11.190Z,6.10
2023-02-01T09:50:40.430Z,6.10
2023-02-01T09:53:23.025Z,6.20
2023-02-01T09:55:52.268Z,6.20
2023-02-01T09:58:28.710Z,6.10
2023-02-01T10:00:58.962Z,6.20
2023-02-01T10:03:32.611Z,6.20
2023-02-01T10:06:12.037Z,6.20
2023-02-01T10:09:13.835Z,6.20
2023-02-01T10:11:56.901Z,6.20
2023-02-01T10:14:50.964Z,6.30
2023-02-01T10:17:31.299Z,6.40
2023-02-01T10:20:19.840Z,6.60
2023-02-01T10:23:19.193Z,6.90
2023-02-01T10:25:56.448Z,7.00
2023-02-01T10:28:26.037Z,7.40
2023-02-01T10:30:58.088Z,7.50
2023-02-01T10:33:27.606Z,7.70
2023-02-01T10:36:04.242Z,7.60
2023-02-01T10:38:33.657Z,7.50
2023-02-01T10:41:11.944Z,7.30
2023-02-01T10:43:40.160Z,7.20
2023-02-01T10:46:08.526Z,7.20
2023-02-01T10:48:35.925Z,7.00
2023-02-01T10:51:17.173Z,6.90
2023-02-01T10:53:53.445Z,6.70
2023-02-01T10:56:30.122Z,6.70
2023-02-01T10:59:05.937Z,6.80
2023-02-01T11:01:38.646Z,6.90
2023-02-01T11:04:09.565Z,6.90
2023-02-01T11:06:39.743Z,6.90
2023-02-01T11:09:09.138Z,6.90
2023-02-01T11:11:56.770Z,6.90
2023-02-01T11:14:26.284Z,7.00
2023-02-01T11:16:55.325Z,7.00
2023-02-01T11:19:22.372Z,7.00
2023-02-01T11:21:56.743Z,7.00
2023-02-01T11:24:29.586Z,6.90
2023-02-01T11:26:58.439Z,7.20
2023-02-01T11:29:30.558Z,7.10
2023-02-01T11:31:59.992Z,7.20
2023-02-01T11:34:33.276Z,7.30
2023-02-01T11:37:04.252Z,7.60
2023-02-01T11:39:34.335Z,7.80
2023-02-01T11:42:28.120Z,7.80
2023-02-01T11:45:19.705Z,7.50
2023-02-01T11:47:47.091Z,7.70
2023-02-01T11:50:18.754Z,7.90
2023-02-01T11:53:04.084Z,8.00
2023-02-01T11:55:54.259Z,8.10
2023-02-01T11:58:36.231Z,7.90
2023-02-01T12:01:24.073Z,7.90
2023-02-01T12:04:18.952Z,7.90
2023-02-01T12:06:54.592Z,8.30
2023-02-01T12:09:41.154Z,7.90
2023-02-01T12:12:24.966Z,8.00
2023-02-01T12:15:14.410Z,7.90
2023-02-01T12:18:11.901Z,7.80
2023-02-01T12:20:48.968Z,7.70
2023-02-01T12:23:40.566Z,7.70
2023-02-01T12:26:09.994Z,7.50
2023-02-01T12:29:01.417Z,7.50
2023-02-01T12:31:53.815Z,7.40
2023-02-01T12:34:44.045Z,7.50
2023-02-01T12:37:46.998Z,7.40
2023-02-01T12:40:48.149Z,7.40
2023-02-01T12:43:26.035Z,7.40
2023-02-01T12:46:15.737Z,7.50
2023-02-01T12:49:02.755Z,7.40
2023-02-01T12:51:42.212Z,7.50
2023-02-01T12:54:28.026Z,7.30
2023-02-01T12:57:03.971Z,7.10
2023-02-01T12:59:50.265Z,7.10
2023-02-01T13:02:49.476Z,7.10
2023-02-01T13:05:25.731Z,7.10
2023-02-01T13:08:05.835Z,7.00
2023-02-01T13:10:44.704Z,7.00
2023-02-01T13:13:32.488Z,7.10
2023-02-01T13:16:14.447Z,7.10
2023-02-01T13:18:44.085Z,7.20
2023-02-01T13:21:25.535Z,7.20
2023-02-01T13:23:54.021Z,7.20
2023-02-01T13:26:20.791Z,7.20
2023-02-01T13:29:03.603Z,7.20
2023-02-01T13:31:49.025Z,7.20
2023-02-01T13:34:38.414Z,7.10
2023-02-01T13:37:27.589Z,7.10
2023-02-01T13:40:31.873Z,7.10
2023-02-01T13:43:07.776Z,7.00
2023-02-01T13:45:38.340Z,7.10
2023-02-01T13:48:07.430Z,7.20
2023-02-01T13:50:38.536Z,7.10
2023-02-01T13:53:15.523Z,7.20
2023-02-01T13:55:47.375Z,7.20
2023-02-01T13:58:21.375Z,7.20
2023-02-01T14:00:52.046Z,7.10
2023-02-01T14:03:23.670Z,7.10
2023-02-01T14:05:50.260Z,7.10
2023-02-01T14:08:39.094Z,7.00
2023-02-01T14:11:06.434Z,7.00
2023-02-01T14:13:41.162Z,7.00
2023-02-01T14:16:08.076Z,7.00
2023-02-01T14:18:34.706Z,7.00
2023-02-01T14:21:23.569Z,6.90
2023-02-01T14:24:08.268Z,6.90
2023-02-01T14:26:48.898Z,6.90
2023-02-01T14:29:22.092Z,6.90
2023-02-01T14:32:13.657Z,6.90
2023-02-01T14:34:49.887Z,6.90
2023-02-01T14:37:19.439Z,6.90
2023-02-01T14:39:46.063Z,6.90
2023-02-01T14:42:40.026Z,6.90
2023-02-01T14:45:19.786Z,6.90
2023-02-01T14:47:48.773Z,6.90
2023-02-01T14:50:33.391Z,6.90
2023-02-01T14:53:14.937Z,7.00
2023-02-01T14:55:45.555Z,6.90
2023-02-01T14:58:39.364Z,7.00
2023-02-01T15:01:31.414Z,7.00
2023-02-01T15:04:19.124Z,7.00
2023-02-01T15:06:49.625Z,7.10
2023-02-01T15:09:25.851Z,7.00
2023-02-01T15:11:59.079Z,6.90
2023-02-01T15:14:30.128Z,6.80
2023-02-01T15:16:57.050Z,6.70
2023-02-01T15:19:29.023Z,6.60
2023-02-01T15:21:59.484Z,6.60
2023-02-01T15:24:28.825Z,6.60
2023-02-01T15:26:57.162Z,6.60
2023-02-01T15:29:30.301Z,6.60
2023-02-01T15:31:56.907Z,6.60
2023-02-01T15:34:23.571Z,6.60
2023-02-01T15:37:03.177Z,6.60
2023-02-01T15:39:32.522Z,6.60
2023-02-01T15:42:11.300Z,6.60
2023-02-01T15:44:47.530Z,6.50
2023-02-01T15:47:18.599Z,6.50
2023-02-01T15:49:51.285Z,6.50
2023-02-01T15:52:25.337Z,6.50
2023-02-01T15:54:59.200Z,6.50
2023-02-01T15:57:36.185Z,6.50
2023-02-01T16:00:24.594Z,6.50
2023-02-01T16:03:20.971Z,6.40
2023-02-01T16:05:55.088Z,6.40
2023-02-01T16:08:24.205Z,6.40
2023-02-01T16:10:54.046Z,6.40
2023-02-01T16:13:21.627Z,6.30
2023-02-01T16:15:48.837Z,6.30
2023-02-01T16:18:18.625Z,6.30
2023-02-01T16:20:46.315Z,6.30
2023-02-01T16:23:13.495Z,6.20
2023-02-01T16:25:41.239Z,6.20
2023-02-01T16:28:09.182Z,6.20
2023-02-01T16:30:36.629Z,6.20
2023-02-01T16:33:03.564Z,6.20
2023-02-01T16:35:38.068Z,6.20
2023-02-01T16:38:13.890Z,6.30
2023-02-01T16:40:42.521Z,6.30
2023-02-01T16:43:23.767Z,6.30
2023-02-01T16:45:53.073Z,6.30
2023-02-01T16:48:22.758Z,6.30
2023-02-01T16:50:51.530Z,6.30
2023-02-01T16:53:19.799Z,6.30
2023-02-01T16:55:48.627Z,6.30
2023-02-01T16:58:15.187Z,6.30
2023-02-01T17:00:41.921Z,6.30
2023-02-01T17:03:08.564Z,6.20
2023-02-01T17:05:35.663Z,6.10
2023-02-01T17:08:06.450Z,6.00
2023-02-01T17:10:34.550Z,5.90
2023-02-01T17:13:02.070Z,5.90
2023-02-01T17:15:32.496Z,5.70
2023-02-01T17:18:02.593Z,5.60
2023-02-01T17:20:33.038Z,5.60
2023-02-01T17:23:00.563Z,5.60
2023-02-01T17:25:29.886Z,5.60
2023-02-01T17:27:56.505Z,5.50
2023-02-01T17:30:23.161Z,5.50
2023-02-01T17:32:49.814Z,5.50
2023-02-01T17:35:23.107Z,5.40
2023-02-01T17:37:50.709Z,5.40
2023-02-01T17:40:17.795Z,5.40
2023-02-01T17:42:44.751Z,5.40
2023-02-01T17:45:36.859Z,5.30
2023-02-01T17:48:05.391Z,5.30
2023-02-01T17:50:34.823Z,5.30
2023-02-01T17:53:03.064Z,5.30
2023-02-01T17:55:30.434Z,5.20
2023-02-01T17:57:57.101Z,5.20
2023-02-01T18:00:23.822Z,5.20
2023-02-01T18:02:50.506Z,5.10
2023-02-01T18:05:25.279Z,5.10
2023-02-01T18:07:52.227Z,5.10
2023-02-01T18:10:18.914Z,5.10
2023-02-01T18:12:45.979Z,5.10
2023-02-01T18:15:18.304Z,5.00
2023-02-01T18:17:45.182Z,5.00
2023-02-01T18:20:23.093Z,4.90
2023-02-01T18:22:50.429Z,5.00
2023-02-01T18:25:26.174Z,4.90
2023-02-01T18:27:55.210Z,4.90
2023-02-01T18:30:24.025Z,4.80
2023-02-01T18:32:50.951Z,4.80
2023-02-01T18:35:26.157Z,4.80
2023-02-01T18:37:54.596Z,4.80
2023-02-01T18:40:26.232Z,4.70
2023-02-01T18:42:53.206Z,4.70
2023-02-01T18:45:32.514Z,4.70
2023-02-01T18:47:59.867Z,4.70
2023-02-01T18:50:29.089Z,4.70
2023-02-01T18:52:57.584Z,4.70
2023-02-01T18:55:25.775Z,4.80
2023-02-01T18:57:52.661Z,4.80
2023-02-01T19:00:21.494Z,4.80
2023-02-01T19:02:49.292Z,4.70
2023-02-01T19:05:16.755Z,4.80
2023-02-01T19:07:46.067Z,4.70
2023-02-01T19:10:16.274Z,4.70
2023-02-01T19:12:43.112Z,4.70
2023-02-01T19:15:15.540Z,4.80
2023-02-01T19:17:44.799Z,4.80
2023-02-01T19:20:16.999Z,4.80
2023-02-01T19:22:43.951Z,4.80
2023-02-01T19:25:19.902Z,4.80
2023-02-01T19:27:46.997Z,4.90
2023-02-01T19:30:14.445Z,4.90
2023-02-01T19:32:41.165Z,4.90
2023-02-01T19:35:10.498Z,4.90
2023-02-01T19:37:37.379Z,4.90
2023-02-01T19:40:04.333Z,5.00
2023-02-01T19:42:30.985Z,4.90
2023-02-01T19:44:57.622Z,5.00
2023-02-01T19:47:24.242Z,5.00
2023-02-01T19:49:50.967Z,5.00
2023-02-01T19:52:17.833Z,5.00
2023-02-01T19:54:44.441Z,5.00
2023-02-01T19:57:11.047Z,5.00
2023-02-01T19:59:38.016Z,5.00
2023-02-01T20:02:03.762Z,5.00
2023-02-01T20:04:30.578Z,5.00
2023-02-01T20:06:57.241Z,5.00
2023-02-01T20:09:30.451Z,5.00
2023-02-01T20:11:57.505Z,5.00
2023-02-01T20:14:26.536Z,5.00
2023-02-01T20:16:53.270Z,5.00
2023-02-01T20:19:19.937Z,4.90
2023-02-01T20:21:46.816Z,4.90
2023-02-01T20:24:16.756Z,4.90
2023-02-01T20:26:45.100Z,4.90
2023-02-01T20:29:13.478Z,4.90
2023-02-01T20:31:40.843Z,4.90
2023-02-01T20:34:08.159Z,4.90
2023-02-01T20:36:35.033Z,4.90
2023-02-01T20:39:02.370Z,4.90
2023-02-01T20:41:29.015Z,4.90
2023-02-01T20:43:55.899Z,4.90
2023-02-01T20:46:22.964Z,4.90
2023-02-01T20:48:50.929Z,4.90
2023-02-01T20:51:20.437Z,5.00
2023-02-01T20:53:48.797Z,4.90
2023-02-01T20:56:16.078Z,4.90
2023-02-01T20:58:43.511Z,4.80
2023-02-01T21:01:11.521Z,4.80
2023-02-01T21:03:39.548Z,4.80
2023-02-01T21:06:07.662Z,4.90
2023-02-01T21:08:34.947Z,4.90
2023-02-01T21:11:05.249Z,4.80
2023-02-01T21:13:38.327Z,4.80
2023-02-01T21:16:08.943Z,4.90
2023-02-01T21:18:35.797Z,4.80
2023-02-01T21:21:07.179Z,4.80
2023-02-01T21:23:33.920Z,4.90
2023-02-01T21:26:03.581Z,4.90
2023-02-01T21:28:30.221Z,4.80
2023-02-01T21:30:56.871Z,4.70
2023-02-01T21:33:23.600Z,4.70
2023-02-01T21:35:51.676Z,4.70
2023-02-01T21:38:18.267Z,4.70
2023-02-01T21:40:45.063Z,4.80
2023-02-01T21:43:11.651Z,4.80
2023-02-01T21:45:41.562Z,4.80
2023-02-01T21:48:10.374Z,4.80
2023-02-01T21:50:36.975Z,4.80
2023-02-01T21:53:03.676Z,4.80
2023-02-01T21:55:30.267Z,5.00
2023-02-01T21:57:56.860Z,5.00
2023-02-01T22:00:24.014Z,5.00
2023-02-01T22:02:50.641Z,5.00
2023-02-01T22:05:17.576Z,4.90
2023-02-01T22:07:44.210Z,4.90
2023-02-01T22:10:12.784Z,4.90
2023-02-01T22:12:39.526Z,4.90
2023-02-01T22:15:06.507Z,4.90
2023-02-01T22:17:33.092Z,4.90
2023-02-01T22:19:59.933Z,5.00
2023-02-01T22:22:26.503Z,5.00
2023-02-01T22:24:54.457Z,5.10
2023-02-01T22:27:21.198Z,5.10
2023-02-01T22:29:57.143Z,5.10
2023-02-01T22:32:23.770Z,5.20
2023-02-01T22:34:50.359Z,5.20
2023-02-01T22:37:16.958Z,5.20
2023-02-01T22:39:43.599Z,5.20
2023-02-01T22:42:10.204Z,5.20
2023-02-01T22:44:36.989Z,5.20
2023-02-01T22:47:03.710Z,5.10
2023-02-01T22:49:30.355Z,5.10
2023-02-01T22:51:58.000Z,5.10
2023-02-01T22:54:24.633Z,5.10
2023-02-01T22:56:51.411Z,5.00
2023-02-01T22:59:18.325Z,5.00
2023-02-01T23:01:45.279Z,5.00
2023-02-01T23:04:14.203Z,5.00
2023-02-01T23:06:41.176Z,5.10
2023-02-01T23:09:14.528Z,5.10
2023-02-01T23:11:42.261Z,5.20
2023-02-01T23:14:09.512Z,5.20
2023-02-01T23:16:36.756Z,5.20
2023-02-01T23:19:03.856Z,5.20
2023-02-01T23:21:30.552Z,5.30
2023-02-01T23:23:59.497Z,5.30
2023-02-01T23:26:29.528Z,5.30
2023-02-01T23:28:57.227Z,5.30
2023-02-01T23:31:26.419Z,5.30
2023-02-01T23:33:56.764Z,5.30
2023-02-01T23:36:25.118Z,5.40
2023-02-01T23:38:51.884Z,5.30
2023-02-01T23:41:20.352Z,5.30
2023-02-01T23:43:59.402Z,5.30
2023-02-01T23:46:30.612Z,5.30
2023-02-01T23:48:58.010Z,5.20
2023-02-01T23:51:25.650Z,5.20
2023-02-01T23:53:52.578Z,5.20
2023-02-01T23:56:33.104Z,5.20
2023-02-01T23:59:01.333Z,5.20
